sensor_id;sensor_type;location;lat;lon;timestamp;pressure;altitude;pressure_sealevel;temperature;humidity
75188;BME280;63762;51.334;22.108;2023-03-20T00:02:19;101677.48;;;7.21;61.58
75188;BME280;63762;51.334;22.108;2023-03-20T00:12:24;101667.88;;;7.00;61.72
75188;BME280;63762;51.334;22.108;2023-03-20T00:22:31;101681.37;;;6.80;62.40
75188;BME280;63762;51.334;22.108;2023-03-20T00:32:38;101676.49;;;6.52;62.46
75188;BME280;63762;51.334;22.108;2023-03-20T00:42:49;101675.41;;;6.38;63.32
75188;BME280;63762;51.334;22.108;2023-03-20T00:52:53;101656.85;;;6.35;63.89
75188;BME280;63762;51.334;22.108;2023-03-20T01:03:01;101663.05;;;6.35;64.06
75188;BME280;63762;51.334;22.108;2023-03-20T01:13:14;101656.99;;;6.32;64.34
75188;BME280;63762;51.334;22.108;2023-03-20T01:23:18;101667.09;;;6.25;64.25
75188;BME280;63762;51.334;22.108;2023-03-20T01:33:23;101653.23;;;6.17;64.33
75188;BME280;63762;51.334;22.108;2023-03-20T01:43:29;101652.64;;;6.11;64.53
75188;BME280;63762;51.334;22.108;2023-03-20T01:53:36;101648.46;;;6.05;65.06
75188;BME280;63762;51.334;22.108;2023-03-20T02:03:46;101644.13;;;6.03;65.29
75188;BME280;63762;51.334;22.108;2023-03-20T02:13:56;101635.31;;;6.01;65.32
75188;BME280;63762;51.334;22.108;2023-03-20T02:54:59;101636.90;;;5.06;67.54
75188;BME280;63762;51.334;22.108;2023-03-20T03:05:03;101640.05;;;5.16;67.97
75188;BME280;63762;51.334;22.108;2023-03-20T03:15:12;101626.19;;;5.28;67.50
75188;BME280;63762;51.334;22.108;2023-03-20T03:25:15;101621.89;;;5.44;67.44
75188;BME280;63762;51.334;22.108;2023-03-20T03:35:19;101618.18;;;5.48;67.11
75188;BME280;63762;51.334;22.108;2023-03-20T03:45:32;101604.29;;;5.40;66.91
75188;BME280;63762;51.334;22.108;2023-03-20T03:55:38;101605.63;;;5.30;67.27
75188;BME280;63762;51.334;22.108;2023-03-20T04:05:44;101605.12;;;5.22;67.52
75188;BME280;63762;51.334;22.108;2023-03-20T04:15:46;101621.25;;;5.19;67.24
75188;BME280;63762;51.334;22.108;2023-03-20T04:25:48;101597.70;;;5.08;67.55
75188;BME280;63762;51.334;22.108;2023-03-20T04:35:49;101611.37;;;5.01;67.83
75188;BME280;63762;51.334;22.108;2023-03-20T04:45:50;101608.82;;;4.98;67.69
75188;BME280;63762;51.334;22.108;2023-03-20T04:55:51;101624.29;;;4.90;67.70
75188;BME280;63762;51.334;22.108;2023-03-20T05:05:52;101613.77;;;4.87;68.31
75188;BME280;63762;51.334;22.108;2023-03-20T05:15:59;101619.80;;;4.90;69.03
75188;BME280;63762;51.334;22.108;2023-03-20T05:26:06;101608.95;;;4.95;68.64
75188;BME280;63762;51.334;22.108;2023-03-20T05:36:13;101606.04;;;5.01;68.65
75188;BME280;63762;51.334;22.108;2023-03-20T05:46:20;101616.70;;;5.21;68.57
75188;BME280;63762;51.334;22.108;2023-03-20T05:56:27;101612.02;;;5.46;69.44
75188;BME280;63762;51.334;22.108;2023-03-20T06:06:34;101609.86;;;5.74;68.43
75188;BME280;63762;51.334;22.108;2023-03-20T06:16:41;101629.12;;;6.19;67.68
75188;BME280;63762;51.334;22.108;2023-03-20T06:26:48;101629.90;;;6.75;65.86
75188;BME280;63762;51.334;22.108;2023-03-20T06:36:56;101622.57;;;7.31;65.23
75188;BME280;63762;51.334;22.108;2023-03-20T06:47:03;101630.88;;;7.92;62.64
75188;BME280;63762;51.334;22.108;2023-03-20T06:57:10;101624.30;;;8.45;60.73
75188;BME280;63762;51.334;22.108;2023-03-20T07:07:18;101615.50;;;8.88;59.06
75188;BME280;63762;51.334;22.108;2023-03-20T07:17:24;101623.28;;;9.08;58.99
75188;BME280;63762;51.334;22.108;2023-03-20T07:27:31;101611.16;;;9.31;58.88
75188;BME280;63762;51.334;22.108;2023-03-20T07:37:38;101617.24;;;9.63;58.42
75188;BME280;63762;51.334;22.108;2023-03-20T07:47:46;101621.95;;;9.87;57.29
75188;BME280;63762;51.334;22.108;2023-03-20T07:57:53;101618.98;;;9.92;56.77
75188;BME280;63762;51.334;22.108;2023-03-20T08:08:00;101610.16;;;10.18;56.30
75188;BME280;63762;51.334;22.108;2023-03-20T08:18:07;101609.89;;;10.89;54.64
75188;BME280;63762;51.334;22.108;2023-03-20T08:28:14;101628.20;;;11.63;51.34
75188;BME280;63762;51.334;22.108;2023-03-20T08:38:21;101622.35;;;12.06;50.82
75188;BME280;63762;51.334;22.108;2023-03-20T08:48:28;101622.28;;;12.44;48.03
75188;BME280;63762;51.334;22.108;2023-03-20T08:58:35;101626.06;;;12.77;47.32
75188;BME280;63762;51.334;22.108;2023-03-20T09:08:43;101630.13;;;13.65;43.69
75188;BME280;63762;51.334;22.108;2023-03-20T09:18:50;101626.03;;;14.27;43.61
75188;BME280;63762;51.334;22.108;2023-03-20T09:28:57;101616.11;;;14.70;41.29
75188;BME280;63762;51.334;22.108;2023-03-20T09:39:04;101617.38;;;15.40;42.08
75188;BME280;63762;51.334;22.108;2023-03-20T09:49:23;101607.91;;;15.96;38.57
75188;BME280;63762;51.334;22.108;2023-03-20T09:59:24;101602.20;;;16.29;38.61
75188;BME280;63762;51.334;22.108;2023-03-20T10:09:27;101594.65;;;16.91;38.18
75188;BME280;63762;51.334;22.108;2023-03-20T10:50:18;101577.06;;;17.05;35.90
75188;BME280;63762;51.334;22.108;2023-03-20T11:00:23;101585.08;;;16.38;37.33
75188;BME280;63762;51.334;22.108;2023-03-20T11:10:25;101581.13;;;16.12;37.61
75188;BME280;63762;51.334;22.108;2023-03-20T11:20:32;101559.90;;;16.36;38.57
75188;BME280;63762;51.334;22.108;2023-03-20T11:33:30;101561.88;;;16.93;37.81
75188;BME280;63762;51.334;22.108;2023-03-20T11:43:37;101542.28;;;17.18;38.77
75188;BME280;63762;51.334;22.108;2023-03-20T11:53:59;101545.13;;;17.26;38.00
75188;BME280;63762;51.334;22.108;2023-03-20T12:04:04;101532.55;;;16.87;39.08
75188;BME280;63762;51.334;22.108;2023-03-20T12:14:22;101528.73;;;16.31;41.14
75188;BME280;63762;51.334;22.108;2023-03-20T12:24:44;101531.25;;;16.62;40.25
75188;BME280;63762;51.334;22.108;2023-03-20T12:44:54;101534.80;;;15.33;43.35
75188;BME280;63762;51.334;22.108;2023-03-20T13:05:22;101543.20;;;14.13;46.14
75188;BME280;63762;51.334;22.108;2023-03-20T13:15:33;101537.92;;;14.12;48.03
75188;BME280;63762;51.334;22.108;2023-03-20T13:46:17;101528.84;;;13.69;53.15
75188;BME280;63762;51.334;22.108;2023-03-20T13:56:27;101522.70;;;13.78;53.63
75188;BME280;63762;51.334;22.108;2023-03-20T14:16:42;101536.51;;;13.18;56.86
75188;BME280;63762;51.334;22.108;2023-03-20T14:26:47;101535.87;;;12.91;59.19
75188;BME280;63762;51.334;22.108;2023-03-20T14:36:57;101541.09;;;12.70;60.83
75188;BME280;63762;51.334;22.108;2023-03-20T14:57:17;101529.95;;;12.75;61.70
75188;BME280;63762;51.334;22.108;2023-03-20T15:07:28;101528.28;;;12.61;63.05
75188;BME280;63762;51.334;22.108;2023-03-20T15:17:37;101547.74;;;12.54;63.81
75188;BME280;63762;51.334;22.108;2023-03-20T15:27:39;101542.64;;;12.38;64.64
75188;BME280;63762;51.334;22.108;2023-03-20T15:37:43;101545.02;;;12.30;65.43
75188;BME280;63762;51.334;22.108;2023-03-20T15:47:45;101542.66;;;12.26;66.98
75188;BME280;63762;51.334;22.108;2023-03-20T15:57:47;101543.98;;;12.20;67.50
75188;BME280;63762;51.334;22.108;2023-03-20T16:07:49;101550.08;;;11.99;68.13
75188;BME280;63762;51.334;22.108;2023-03-20T16:17:53;101559.48;;;11.93;68.64
75188;BME280;63762;51.334;22.108;2023-03-20T16:27:55;101560.02;;;11.73;69.56
75188;BME280;63762;51.334;22.108;2023-03-20T16:38:00;101575.31;;;11.48;71.37
75188;BME280;63762;51.334;22.108;2023-03-20T16:58:20;101573.14;;;11.27;74.14
75188;BME280;63762;51.334;22.108;2023-03-20T17:18:34;101573.66;;;11.07;75.96
75188;BME280;63762;51.334;22.108;2023-03-20T17:28:36;101568.22;;;10.95;77.10
75188;BME280;63762;51.334;22.108;2023-03-20T17:38:37;101579.84;;;10.83;77.67
75188;BME280;63762;51.334;22.108;2023-03-20T17:48:38;101563.35;;;10.87;77.57
75188;BME280;63762;51.334;22.108;2023-03-20T17:58:40;101562.24;;;10.77;77.91
75188;BME280;63762;51.334;22.108;2023-03-20T18:08:44;101546.77;;;10.81;77.98
75188;BME280;63762;51.334;22.108;2023-03-20T18:18:46;101551.95;;;10.84;77.49
75188;BME280;63762;51.334;22.108;2023-03-20T18:28:48;101545.25;;;10.77;78.04
75188;BME280;63762;51.334;22.108;2023-03-20T18:38:51;101546.95;;;10.65;79.16
75188;BME280;63762;51.334;22.108;2023-03-20T18:48:52;101560.38;;;10.39;80.14
75188;BME280;63762;51.334;22.108;2023-03-20T18:58:53;101562.16;;;10.12;81.54
75188;BME280;63762;51.334;22.108;2023-03-20T19:08:55;101566.01;;;10.08;82.03
75188;BME280;63762;51.334;22.108;2023-03-20T19:18:59;101567.34;;;10.01;82.11
75188;BME280;63762;51.334;22.108;2023-03-20T19:29:05;101564.46;;;10.04;81.83
75188;BME280;63762;51.334;22.108;2023-03-20T19:39:13;101577.80;;;10.05;81.57
75188;BME280;63762;51.334;22.108;2023-03-20T19:49:20;101568.51;;;9.97;81.50
75188;BME280;63762;51.334;22.108;2023-03-20T19:59:26;101563.71;;;9.88;81.13
75188;BME280;63762;51.334;22.108;2023-03-20T20:09:33;101558.72;;;9.82;80.48
75188;BME280;63762;51.334;22.108;2023-03-20T20:19:40;101573.32;;;9.64;80.97
75188;BME280;63762;51.334;22.108;2023-03-20T20:29:51;101559.08;;;9.34;81.94
75188;BME280;63762;51.334;22.108;2023-03-20T20:39:54;101574.98;;;9.23;82.54
75188;BME280;63762;51.334;22.108;2023-03-20T20:50:02;101564.91;;;9.26;82.82
75188;BME280;63762;51.334;22.108;2023-03-20T21:00:09;101565.78;;;9.27;83.33
75188;BME280;63762;51.334;22.108;2023-03-20T21:10:18;101561.85;;;9.32;83.27
75188;BME280;63762;51.334;22.108;2023-03-20T21:20:23;101548.52;;;9.31;83.24
75188;BME280;63762;51.334;22.108;2023-03-20T21:30:30;101554.16;;;9.26;83.08
75188;BME280;63762;51.334;22.108;2023-03-20T21:40:37;101547.40;;;9.35;82.42
75188;BME280;63762;51.334;22.108;2023-03-20T21:50:44;101552.54;;;9.24;83.30
75188;BME280;63762;51.334;22.108;2023-03-20T22:00:51;101543.34;;;9.28;83.56
75188;BME280;63762;51.334;22.108;2023-03-20T22:10:59;101546.11;;;9.26;83.44
75188;BME280;63762;51.334;22.108;2023-03-20T22:21:06;101546.70;;;9.31;83.17
75188;BME280;63762;51.334;22.108;2023-03-20T22:31:14;101545.27;;;9.26;83.07
75188;BME280;63762;51.334;22.108;2023-03-20T22:41:21;101540.17;;;9.21;83.16
75188;BME280;63762;51.334;22.108;2023-03-20T22:51:27;101547.26;;;9.22;83.18
75188;BME280;63762;51.334;22.108;2023-03-20T23:01:34;101557.53;;;9.16;83.61
75188;BME280;63762;51.334;22.108;2023-03-20T23:11:41;101547.26;;;9.22;83.75
75188;BME280;63762;51.334;22.108;2023-03-20T23:21:49;101562.13;;;9.28;83.40
75188;BME280;63762;51.334;22.108;2023-03-20T23:31:56;101551.19;;;9.17;83.71
75188;BME280;63762;51.334;22.108;2023-03-20T23:42:03;101549.10;;;9.22;83.28
75188;BME280;63762;51.334;22.108;2023-03-20T23:52:11;101541.42;;;9.16;83.31
